sensor_id;sensor_type;location;lat;lon;timestamp;pressure;altitude;pressure_sealevel;temperature;humidity
75855;BME280;64502;59.976;30.316;2023-11-21T00:00:14;101702.41;;;-2.14;71.15
75855;BME280;64502;59.976;30.316;2023-11-21T00:02:41;101703.28;;;-2.14;71.64
75855;BME280;64502;59.976;30.316;2023-11-21T00:05:11;101705.03;;;-2.10;70.76
75855;BME280;64502;59.976;30.316;2023-11-21T00:07:39;101705.97;;;-2.03;70.91
75855;BME280;64502;59.976;30.316;2023-11-21T00:10:05;101698.25;;;-1.98;70.34
75855;BME280;64502;59.976;30.316;2023-11-21T00:12:32;101709.50;;;-1.96;71.01
75855;BME280;64502;59.976;30.316;2023-11-21T00:14:59;101706.03;;;-1.95;70.74
75855;BME280;64502;59.976;30.316;2023-11-21T00:17:25;101703.44;;;-1.97;70.94
75855;BME280;64502;59.976;30.316;2023-11-21T00:19:50;101695.66;;;-1.98;70.13
75855;BME280;64502;59.976;30.316;2023-11-21T00:22:19;101697.38;;;-2.01;70.70
75855;BME280;64502;59.976;30.316;2023-11-21T00:24:45;101705.13;;;-2.01;70.16
75855;BME280;64502;59.976;30.316;2023-11-21T00:27:12;101706.00;;;-1.98;70.51
75855;BME280;64502;59.976;30.316;2023-11-21T00:29:38;101699.97;;;-1.97;70.55
75855;BME280;64502;59.976;30.316;2023-11-21T00:32:05;101704.28;;;-1.98;70.12
75855;BME280;64502;59.976;30.316;2023-11-21T00:34:31;101699.09;;;-1.99;69.80
75855;BME280;64502;59.976;30.316;2023-11-21T00:36:57;101709.44;;;-1.99;69.94
75855;BME280;64502;59.976;30.316;2023-11-21T00:39:23;101712.00;;;-2.04;70.62
75855;BME280;64502;59.976;30.316;2023-11-21T00:41:49;101715.38;;;-2.08;70.42
75855;BME280;64502;59.976;30.316;2023-11-21T00:44:15;101717.06;;;-2.13;70.88
75855;BME280;64502;59.976;30.316;2023-11-21T00:46:41;101715.31;;;-2.16;70.54
75855;BME280;64502;59.976;30.316;2023-11-21T00:49:07;101717.06;;;-2.15;70.71
75855;BME280;64502;59.976;30.316;2023-11-21T00:51:33;101721.38;;;-2.15;70.80
75855;BME280;64502;59.976;30.316;2023-11-21T00:53:58;101716.19;;;-2.14;70.33
75855;BME280;64502;59.976;30.316;2023-11-21T00:56:24;101722.25;;;-2.10;70.73
75855;BME280;64502;59.976;30.316;2023-11-21T00:58:49;101722.28;;;-2.09;70.20
75855;BME280;64502;59.976;30.316;2023-11-21T01:01:18;101722.25;;;-2.10;69.78
75855;BME280;64502;59.976;30.316;2023-11-21T01:03:46;101719.63;;;-2.16;70.40
75855;BME280;64502;59.976;30.316;2023-11-21T01:06:11;101731.63;;;-2.21;70.12
75855;BME280;64502;59.976;30.316;2023-11-21T01:08:37;101740.28;;;-2.21;70.70
75855;BME280;64502;59.976;30.316;2023-11-21T01:11:02;101743.72;;;-2.19;70.28
75855;BME280;64502;59.976;30.316;2023-11-21T01:13:28;101743.72;;;-2.19;70.12
75855;BME280;64502;59.976;30.316;2023-11-21T01:15:55;101736.81;;;-2.20;70.71
75855;BME280;64502;59.976;30.316;2023-11-21T01:18:20;101729.97;;;-2.18;71.11
75855;BME280;64502;59.976;30.316;2023-11-21T01:20:46;101734.28;;;-2.15;70.09
75855;BME280;64502;59.976;30.316;2023-11-21T01:23:15;101738.63;;;-2.13;70.71
75855;BME280;64502;59.976;30.316;2023-11-21T01:25:40;101742.09;;;-2.12;70.90
75855;BME280;64502;59.976;30.316;2023-11-21T01:28:06;101739.50;;;-2.12;70.80
75855;BME280;64502;59.976;30.316;2023-11-21T01:30:32;101742.06;;;-2.14;70.50
75855;BME280;64502;59.976;30.316;2023-11-21T01:32:59;101733.47;;;-2.13;70.78
75855;BME280;64502;59.976;30.316;2023-11-21T01:35:24;101736.88;;;-2.14;70.66
75855;BME280;64502;59.976;30.316;2023-11-21T01:37:50;101742.06;;;-2.14;71.03
75855;BME280;64502;59.976;30.316;2023-11-21T01:40:16;101731.75;;;-2.12;70.91
75855;BME280;64502;59.976;30.316;2023-11-21T01:42:42;101730.91;;;-2.08;70.85
75855;BME280;64502;59.976;30.316;2023-11-21T01:45:09;101735.28;;;-2.03;70.93
75855;BME280;64502;59.976;30.316;2023-11-21T01:47:36;101732.75;;;-1.98;70.51
75855;BME280;64502;59.976;30.316;2023-11-21T01:50:02;101740.56;;;-1.93;70.47
75855;BME280;64502;59.976;30.316;2023-11-21T01:52:32;101745.72;;;-1.92;70.78
75855;BME280;64502;59.976;30.316;2023-11-21T01:54:59;101745.69;;;-1.96;70.90
75855;BME280;64502;59.976;30.316;2023-11-21T01:57:25;101742.22;;;-1.97;70.59
75855;BME280;64502;59.976;30.316;2023-11-21T01:59:51;101746.53;;;-1.99;71.49
75855;BME280;64502;59.976;30.316;2023-11-21T02:02:19;101747.38;;;-2.00;71.11
75855;BME280;64502;59.976;30.316;2023-11-21T02:04:45;101749.16;;;-1.96;71.04
75855;BME280;64502;59.976;30.316;2023-11-21T02:07:10;101743.13;;;-1.92;71.72
75855;BME280;64502;59.976;30.316;2023-11-21T02:09:36;101742.31;;;-1.88;71.30
75855;BME280;64502;59.976;30.316;2023-11-21T02:12:04;101746.66;;;-1.84;70.72
75855;BME280;64502;59.976;30.316;2023-11-21T02:14:30;101756.19;;;-1.83;71.02
75855;BME280;64502;59.976;30.316;2023-11-21T02:16:57;101751.84;;;-1.84;71.14
75855;BME280;64502;59.976;30.316;2023-11-21T02:19:23;101750.97;;;-1.84;70.91
75855;BME280;64502;59.976;30.316;2023-11-21T02:21:51;101758.72;;;-1.84;70.95
75855;BME280;64502;59.976;30.316;2023-11-21T02:24:21;101762.22;;;-1.82;70.97
75855;BME280;64502;59.976;30.316;2023-11-21T02:26:50;101764.81;;;-1.77;71.06
75855;BME280;64502;59.976;30.316;2023-11-21T02:29:19;101770.03;;;-1.73;70.88
75855;BME280;64502;59.976;30.316;2023-11-21T02:31:48;101767.50;;;-1.71;71.20
75855;BME280;64502;59.976;30.316;2023-11-21T02:34:17;101766.63;;;-1.70;70.75
75855;BME280;64502;59.976;30.316;2023-11-21T02:36:44;101773.53;;;-1.69;70.80
75855;BME280;64502;59.976;30.316;2023-11-21T02:39:10;101768.34;;;-1.69;70.42
75855;BME280;64502;59.976;30.316;2023-11-21T02:41:39;101764.06;;;-1.67;70.75
75855;BME280;64502;59.976;30.316;2023-11-21T02:44:06;101765.75;;;-1.71;70.43
75855;BME280;64502;59.976;30.316;2023-11-21T02:46:32;101768.28;;;-1.75;71.36
75855;BME280;64502;59.976;30.316;2023-11-21T02:49:03;101764.81;;;-1.77;70.70
75855;BME280;64502;59.976;30.316;2023-11-21T02:51:32;101760.50;;;-1.80;71.67
75855;BME280;64502;59.976;30.316;2023-11-21T02:53:58;101765.66;;;-1.82;71.44
75855;BME280;64502;59.976;30.316;2023-11-21T02:56:27;101769.97;;;-1.82;71.37
75855;BME280;64502;59.976;30.316;2023-11-21T02:58:55;101772.56;;;-1.82;71.49
75855;BME280;64502;59.976;30.316;2023-11-21T03:01:21;101773.38;;;-1.88;71.09
75855;BME280;64502;59.976;30.316;2023-11-21T03:03:47;101775.91;;;-1.92;71.73
75855;BME280;64502;59.976;30.316;2023-11-21T03:06:19;101780.22;;;-1.93;71.67
75855;BME280;64502;59.976;30.316;2023-11-21T03:08:46;101775.03;;;-1.91;71.83
75855;BME280;64502;59.976;30.316;2023-11-21T03:11:12;101784.56;;;-1.87;71.38
75855;BME280;64502;59.976;30.316;2023-11-21T03:13:39;101782.88;;;-1.85;71.53
75855;BME280;64502;59.976;30.316;2023-11-21T03:16:09;101782.00;;;-1.84;71.39
75855;BME280;64502;59.976;30.316;2023-11-21T03:18:36;101783.72;;;-1.86;71.59
75855;BME280;64502;59.976;30.316;2023-11-21T03:21:02;101784.53;;;-1.89;71.29
75855;BME280;64502;59.976;30.316;2023-11-21T03:23:28;101786.28;;;-1.91;71.27
75855;BME280;64502;59.976;30.316;2023-11-21T03:25:54;101794.88;;;-1.92;71.20
75855;BME280;64502;59.976;30.316;2023-11-21T03:28:19;101794.91;;;-1.90;71.35
75855;BME280;64502;59.976;30.316;2023-11-21T03:30:44;101803.50;;;-1.90;71.38
75855;BME280;64502;59.976;30.316;2023-11-21T03:33:10;101799.19;;;-1.91;71.55
75855;BME280;64502;59.976;30.316;2023-11-21T03:35:35;101800.91;;;-1.91;71.27
75855;BME280;64502;59.976;30.316;2023-11-21T03:38:01;101800.03;;;-1.92;71.22
75855;BME280;64502;59.976;30.316;2023-11-21T03:40:27;101800.91;;;-1.93;71.34
75855;BME280;64502;59.976;30.316;2023-11-21T03:42:52;101810.38;;;-1.92;71.11
75855;BME280;64502;59.976;30.316;2023-11-21T03:45:18;101805.25;;;-1.90;71.10
75855;BME280;64502;59.976;30.316;2023-11-21T03:47:44;101802.66;;;-1.90;71.69
75855;BME280;64502;59.976;30.316;2023-11-21T03:50:09;101801.78;;;-1.91;71.40
75855;BME280;64502;59.976;30.316;2023-11-21T03:52:35;101805.25;;;-1.90;71.51
75855;BME280;64502;59.976;30.316;2023-11-21T03:55:01;101818.16;;;-1.90;70.96
75855;BME280;64502;59.976;30.316;2023-11-21T03:57:27;101803.47;;;-1.91;71.25
75855;BME280;64502;59.976;30.316;2023-11-21T03:59:53;101814.72;;;-1.89;70.98
75855;BME280;64502;59.976;30.316;2023-11-21T04:02:19;101820.75;;;-1.89;70.98
75855;BME280;64502;59.976;30.316;2023-11-21T04:04:44;101812.16;;;-1.88;70.24
75855;BME280;64502;59.976;30.316;2023-11-21T04:07:10;101813.84;;;-1.90;70.38
75855;BME280;64502;59.976;30.316;2023-11-21T04:09:36;101815.56;;;-1.92;70.46
75855;BME280;64502;59.976;30.316;2023-11-21T04:12:02;101816.41;;;-1.93;69.77
75855;BME280;64502;59.976;30.316;2023-11-21T04:14:28;101822.41;;;-1.94;70.16
75855;BME280;64502;59.976;30.316;2023-11-21T04:16:53;101826.72;;;-1.94;70.45
75855;BME280;64502;59.976;30.316;2023-11-21T04:19:19;101827.66;;;-1.91;70.39
75855;BME280;64502;59.976;30.316;2023-11-21T04:21:44;101834.56;;;-1.90;70.08
75855;BME280;64502;59.976;30.316;2023-11-21T04:24:11;101834.50;;;-1.94;70.19
75855;BME280;64502;59.976;30.316;2023-11-21T04:26:37;101842.16;;;-2.02;70.65
75855;BME280;64502;59.976;30.316;2023-11-21T04:29:03;101843.84;;;-2.06;71.01
75855;BME280;64502;59.976;30.316;2023-11-21T04:31:29;101854.19;;;-2.07;71.16
75855;BME280;64502;59.976;30.316;2023-11-21T04:33:55;101855.88;;;-2.09;70.79
75855;BME280;64502;59.976;30.316;2023-11-21T04:36:20;101860.19;;;-2.08;70.65
75855;BME280;64502;59.976;30.316;2023-11-21T04:38:46;101863.72;;;-2.05;70.79
75855;BME280;64502;59.976;30.316;2023-11-21T04:41:11;101865.44;;;-2.02;70.27
75855;BME280;64502;59.976;30.316;2023-11-21T04:43:37;101879.22;;;-2.05;70.01
75855;BME280;64502;59.976;30.316;2023-11-21T04:46:03;101878.28;;;-2.10;69.78
75855;BME280;64502;59.976;30.316;2023-11-21T04:48:28;101876.47;;;-2.17;70.07
75855;BME280;64502;59.976;30.316;2023-11-21T04:50:54;101875.53;;;-2.24;70.46
75855;BME280;64502;59.976;30.316;2023-11-21T04:53:19;101882.38;;;-2.26;70.01
75855;BME280;64502;59.976;30.316;2023-11-21T04:55:45;101885.81;;;-2.27;70.52
75855;BME280;64502;59.976;30.316;2023-11-21T04:58:11;101878.88;;;-2.31;69.68
75855;BME280;64502;59.976;30.316;2023-11-21T05:00:37;101886.59;;;-2.34;69.82
75855;BME280;64502;59.976;30.316;2023-11-21T05:03:03;101888.28;;;-2.37;69.85
75855;BME280;64502;59.976;30.316;2023-11-21T05:05:29;101883.84;;;-2.44;69.85
75855;BME280;64502;59.976;30.316;2023-11-21T05:07:57;101882.84;;;-2.54;69.57
75855;BME280;64502;59.976;30.316;2023-11-21T05:10:23;101886.16;;;-2.64;70.13
75855;BME280;64502;59.976;30.316;2023-11-21T05:12:48;101893.75;;;-2.74;69.95
75855;BME280;64502;59.976;30.316;2023-11-21T05:15:16;101893.63;;;-2.83;70.01
75855;BME280;64502;59.976;30.316;2023-11-21T05:17:44;101891.72;;;-2.93;70.42
75855;BME280;64502;59.976;30.316;2023-11-21T05:20:11;101889.00;;;-3.02;71.31
75855;BME280;64502;59.976;30.316;2023-11-21T05:22:39;101893.97;;;-3.13;71.21
75855;BME280;64502;59.976;30.316;2023-11-21T05:25:06;101899.78;;;-3.25;71.09
75855;BME280;64502;59.976;30.316;2023-11-21T05:27:33;101897.91;;;-3.35;71.68
75855;BME280;64502;59.976;30.316;2023-11-21T05:29:59;101908.09;;;-3.43;72.01
75855;BME280;64502;59.976;30.316;2023-11-21T05:32:25;101905.34;;;-3.50;72.62
75855;BME280;64502;59.976;30.316;2023-11-21T05:34:51;101913.88;;;-3.54;72.08
75855;BME280;64502;59.976;30.316;2023-11-21T05:37:17;101920.66;;;-3.60;72.50
75855;BME280;64502;59.976;30.316;2023-11-21T05:39:43;101926.63;;;-3.62;72.80
75855;BME280;64502;59.976;30.316;2023-11-21T05:42:08;101931.69;;;-3.67;73.03
75855;BME280;64502;59.976;30.316;2023-11-21T05:44:36;101929.91;;;-3.69;72.94
75855;BME280;64502;59.976;30.316;2023-11-21T05:47:02;101924.66;;;-3.74;72.43
75855;BME280;64502;59.976;30.316;2023-11-21T05:49:29;101934.91;;;-3.78;72.63
75855;BME280;64502;59.976;30.316;2023-11-21T05:51:55;101933.09;;;-3.83;72.36
75855;BME280;64502;59.976;30.316;2023-11-21T05:54:21;101939.94;;;-3.85;73.11
75855;BME280;64502;59.976;30.316;2023-11-21T05:56:47;101946.78;;;-3.85;72.99
75855;BME280;64502;59.976;30.316;2023-11-21T05:59:13;101956.25;;;-3.86;72.89
75855;BME280;64502;59.976;30.316;2023-11-21T06:01:38;101958.88;;;-3.84;72.67
75855;BME280;64502;59.976;30.316;2023-11-21T06:04:05;101962.25;;;-3.85;72.83
75855;BME280;64502;59.976;30.316;2023-11-21T06:06:30;101963.97;;;-3.87;73.05
75855;BME280;64502;59.976;30.316;2023-11-21T06:08:57;101968.25;;;-3.86;73.21
75855;BME280;64502;59.976;30.316;2023-11-21T06:11:22;101976.00;;;-3.86;73.37
75855;BME280;64502;59.976;30.316;2023-11-21T06:13:50;101978.53;;;-3.88;73.52
75855;BME280;64502;59.976;30.316;2023-11-21T06:16:15;101985.41;;;-3.88;73.23
75855;BME280;64502;59.976;30.316;2023-11-21T06:18:45;101992.22;;;-3.90;72.19
75855;BME280;64502;59.976;30.316;2023-11-21T06:21:11;101993.88;;;-3.94;72.08
75855;BME280;64502;59.976;30.316;2023-11-21T06:23:37;101986.88;;;-3.99;72.19
75855;BME280;64502;59.976;30.316;2023-11-21T06:26:03;101995.34;;;-4.05;72.07
75855;BME280;64502;59.976;30.316;2023-11-21T06:28:30;101991.84;;;-4.07;71.78
75855;BME280;64502;59.976;30.316;2023-11-21T06:30:56;102002.16;;;-4.09;71.35
75855;BME280;64502;59.976;30.316;2023-11-21T06:33:24;101999.53;;;-4.10;71.38
75855;BME280;64502;59.976;30.316;2023-11-21T06:35:52;102002.97;;;-4.11;70.79
75855;BME280;64502;59.976;30.316;2023-11-21T06:38:18;102003.81;;;-4.11;70.58
75855;BME280;64502;59.976;30.316;2023-11-21T06:40:45;102015.00;;;-4.10;70.46
75855;BME280;64502;59.976;30.316;2023-11-21T06:43:10;102017.63;;;-4.07;70.75
75855;BME280;64502;59.976;30.316;2023-11-21T06:45:36;102010.88;;;-4.02;70.57
75855;BME280;64502;59.976;30.316;2023-11-21T06:48:01;102018.78;;;-3.94;70.13
75855;BME280;64502;59.976;30.316;2023-11-21T06:50:27;102018.97;;;-3.87;69.60
75855;BME280;64502;59.976;30.316;2023-11-21T06:52:52;102030.31;;;-3.78;69.77
75855;BME280;64502;59.976;30.316;2023-11-21T06:55:18;102031.38;;;-3.69;69.46
75855;BME280;64502;59.976;30.316;2023-11-21T06:57:44;102029.00;;;-3.60;68.77
75855;BME280;64502;59.976;30.316;2023-11-21T07:00:10;102028.28;;;-3.52;67.09
75855;BME280;64502;59.976;30.316;2023-11-21T07:02:36;102041.38;;;-3.43;67.18
75855;BME280;64502;59.976;30.316;2023-11-21T07:05:02;102029.47;;;-3.38;67.72
75855;BME280;64502;59.976;30.316;2023-11-21T07:07:28;102034.72;;;-3.32;67.05
75855;BME280;64502;59.976;30.316;2023-11-21T07:09:53;102030.59;;;-3.24;66.60
75855;BME280;64502;59.976;30.316;2023-11-21T07:12:19;102030.81;;;-3.12;66.34
75855;BME280;64502;59.976;30.316;2023-11-21T07:14:44;102032.75;;;-3.01;67.15
75855;BME280;64502;59.976;30.316;2023-11-21T07:17:11;102028.53;;;-2.96;65.40
75855;BME280;64502;59.976;30.316;2023-11-21T07:19:38;102035.47;;;-2.92;65.45
75855;BME280;64502;59.976;30.316;2023-11-21T07:22:03;102032.13;;;-2.88;65.71
75855;BME280;64502;59.976;30.316;2023-11-21T07:24:31;102039.94;;;-2.85;65.81
75855;BME280;64502;59.976;30.316;2023-11-21T07:26:57;102040.88;;;-2.80;64.87
75855;BME280;64502;59.976;30.316;2023-11-21T07:29:24;102036.63;;;-2.76;65.08
75855;BME280;64502;59.976;30.316;2023-11-21T07:31:54;102041.88;;;-2.72;65.24
75855;BME280;64502;59.976;30.316;2023-11-21T07:34:20;102049.78;;;-2.64;64.80
75855;BME280;64502;59.976;30.316;2023-11-21T07:36:47;102042.16;;;-2.56;63.69
75855;BME280;64502;59.976;30.316;2023-11-21T07:39:12;102047.47;;;-2.47;64.30
75855;BME280;64502;59.976;30.316;2023-11-21T07:41:40;102056.28;;;-2.36;63.65
75855;BME280;64502;59.976;30.316;2023-11-21T07:44:10;102048.66;;;-2.27;63.54
75855;BME280;64502;59.976;30.316;2023-11-21T07:46:35;102049.66;;;-2.18;63.38
75855;BME280;64502;59.976;30.316;2023-11-21T07:49:01;102051.41;;;-2.17;62.81
75855;BME280;64502;59.976;30.316;2023-11-21T07:51:26;102051.47;;;-2.14;62.85
75855;BME280;64502;59.976;30.316;2023-11-21T07:53:52;102051.53;;;-2.10;62.29
75855;BME280;64502;59.976;30.316;2023-11-21T07:56:18;102054.19;;;-2.05;62.10
75855;BME280;64502;59.976;30.316;2023-11-21T07:58:43;102054.22;;;-2.02;62.66
75855;BME280;64502;59.976;30.316;2023-11-21T08:01:10;102052.56;;;-1.98;61.42
75855;BME280;64502;59.976;30.316;2023-11-21T08:03:35;102056.06;;;-1.95;62.42
75855;BME280;64502;59.976;30.316;2023-11-21T08:06:01;102062.19;;;-1.90;62.31
75855;BME280;64502;59.976;30.316;2023-11-21T08:08:28;102056.22;;;-1.84;61.36
75855;BME280;64502;59.976;30.316;2023-11-21T08:10:54;102060.66;;;-1.75;61.33
75855;BME280;64502;59.976;30.316;2023-11-21T08:13:26;102057.25;;;-1.73;61.28
75855;BME280;64502;59.976;30.316;2023-11-21T08:15:56;102065.88;;;-1.74;61.46
75855;BME280;64502;59.976;30.316;2023-11-21T08:18:23;102051.16;;;-1.76;62.63
75855;BME280;64502;59.976;30.316;2023-11-21T08:20:49;102047.66;;;-1.80;62.84
75855;BME280;64502;59.976;30.316;2023-11-21T08:23:15;102054.50;;;-1.85;64.34
75855;BME280;64502;59.976;30.316;2023-11-21T08:25:44;102059.66;;;-1.84;64.35
75855;BME280;64502;59.976;30.316;2023-11-21T08:28:10;102057.09;;;-1.84;64.04
75855;BME280;64502;59.976;30.316;2023-11-21T08:30:35;102057.13;;;-1.82;64.82
75855;BME280;64502;59.976;30.316;2023-11-21T08:33:01;102058.84;;;-1.83;64.19
75855;BME280;64502;59.976;30.316;2023-11-21T08:35:28;102058.06;;;-1.77;64.89
75855;BME280;64502;59.976;30.316;2023-11-21T08:37:54;102051.19;;;-1.73;63.15
75855;BME280;64502;59.976;30.316;2023-11-21T08:40:20;102052.97;;;-1.69;64.65
75855;BME280;64502;59.976;30.316;2023-11-21T08:42:46;102056.50;;;-1.66;63.77
75855;BME280;64502;59.976;30.316;2023-11-21T08:45:16;102045.34;;;-1.60;64.56
75855;BME280;64502;59.976;30.316;2023-11-21T08:47:43;102055.78;;;-1.54;64.59
75855;BME280;64502;59.976;30.316;2023-11-21T08:50:09;102055.84;;;-1.49;63.47
75855;BME280;64502;59.976;30.316;2023-11-21T08:52:37;102057.59;;;-1.47;63.29
75855;BME280;64502;59.976;30.316;2023-11-21T08:55:04;102060.06;;;-1.56;63.89
75855;BME280;64502;59.976;30.316;2023-11-21T08:57:36;102056.63;;;-1.55;64.03
75855;BME280;64502;59.976;30.316;2023-11-21T09:00:05;102052.31;;;-1.53;64.03
75855;BME280;64502;59.976;30.316;2023-11-21T09:02:42;102055.88;;;-1.45;63.89
75855;BME280;64502;59.976;30.316;2023-11-21T09:05:12;102055.94;;;-1.40;63.96
75855;BME280;64502;59.976;30.316;2023-11-21T09:07:39;102061.22;;;-1.32;63.99
75855;BME280;64502;59.976;30.316;2023-11-21T09:10:06;102062.16;;;-1.27;63.74
75855;BME280;64502;59.976;30.316;2023-11-21T09:12:35;102063.03;;;-1.27;63.67
75855;BME280;64502;59.976;30.316;2023-11-21T09:15:03;102056.16;;;-1.23;63.90
75855;BME280;64502;59.976;30.316;2023-11-21T09:17:30;102062.25;;;-1.18;64.35
75855;BME280;64502;59.976;30.316;2023-11-21T09:19:55;102054.59;;;-1.10;64.46
75855;BME280;64502;59.976;30.316;2023-11-21T09:22:22;102058.16;;;-0.99;64.08
75855;BME280;64502;59.976;30.316;2023-11-21T09:24:50;102051.38;;;-0.90;63.30
75855;BME280;64502;59.976;30.316;2023-11-21T09:27:15;102052.28;;;-0.84;63.61
75855;BME280;64502;59.976;30.316;2023-11-21T09:29:43;102045.38;;;-0.84;63.45
75855;BME280;64502;59.976;30.316;2023-11-21T09:32:08;102051.44;;;-0.80;63.27
75855;BME280;64502;59.976;30.316;2023-11-21T09:34:38;102046.28;;;-0.77;62.94
75855;BME280;64502;59.976;30.316;2023-11-21T09:37:07;102048.88;;;-0.77;63.59
75855;BME280;64502;59.976;30.316;2023-11-21T09:39:33;102050.63;;;-0.78;63.15
75855;BME280;64502;59.976;30.316;2023-11-21T09:42:12;102052.31;;;-0.80;63.00
75855;BME280;64502;59.976;30.316;2023-11-21T09:47:17;102055.00;;;-0.74;64.37
75855;BME280;64502;59.976;30.316;2023-11-21T09:49:49;102052.75;;;-0.35;63.87
75855;BME280;64502;59.976;30.316;2023-11-21T09:52:25;102053.09;;;0.15;62.26
75855;BME280;64502;59.976;30.316;2023-11-21T09:54:52;102055.03;;;0.47;61.38
75855;BME280;64502;59.976;30.316;2023-11-21T09:57:20;102054.25;;;0.63;60.94
75855;BME280;64502;59.976;30.316;2023-11-21T09:59:51;102052.53;;;0.65;61.05
75855;BME280;64502;59.976;30.316;2023-11-21T10:02:17;102053.34;;;0.55;61.29
75855;BME280;64502;59.976;30.316;2023-11-21T10:04:44;102057.59;;;0.41;61.28
75855;BME280;64502;59.976;30.316;2023-11-21T10:07:11;102065.28;;;0.27;61.80
75855;BME280;64502;59.976;30.316;2023-11-21T10:09:38;102066.09;;;0.17;62.85
75855;BME280;64502;59.976;30.316;2023-11-21T10:12:05;102063.44;;;0.11;64.26
75855;BME280;64502;59.976;30.316;2023-11-21T10:14:37;102074.66;;;0.04;64.75
75855;BME280;64502;59.976;30.316;2023-11-21T10:17:07;102072.88;;;-0.05;65.47
75855;BME280;64502;59.976;30.316;2023-11-21T10:19:35;102078.84;;;-0.15;65.34
75855;BME280;64502;59.976;30.316;2023-11-21T10:22:01;102070.94;;;-0.29;66.05
75855;BME280;64502;59.976;30.316;2023-11-21T10:24:27;102076.03;;;-0.38;65.79
75855;BME280;64502;59.976;30.316;2023-11-21T10:26:52;102078.59;;;-0.45;66.17
75855;BME280;64502;59.976;30.316;2023-11-21T10:29:19;102069.94;;;-0.45;66.99
75855;BME280;64502;59.976;30.316;2023-11-21T10:31:52;102068.22;;;-0.45;66.77
75855;BME280;64502;59.976;30.316;2023-11-21T10:34:23;102073.41;;;-0.45;66.42
75855;BME280;64502;59.976;30.316;2023-11-21T10:36:48;102079.44;;;-0.49;66.82
75855;BME280;64502;59.976;30.316;2023-11-21T10:39:18;102080.22;;;-0.57;66.82
75855;BME280;64502;59.976;30.316;2023-11-21T10:41:45;102080.13;;;-0.65;67.53
75855;BME280;64502;59.976;30.316;2023-11-21T10:44:15;102079.28;;;-0.65;67.61
75855;BME280;64502;59.976;30.316;2023-11-21T10:46:52;102081.84;;;-0.64;68.47
75855;BME280;64502;59.976;30.316;2023-11-21T10:49:22;102081.84;;;-0.65;68.02
75855;BME280;64502;59.976;30.316;2023-11-21T10:51:50;102090.50;;;-0.63;68.42
75855;BME280;64502;59.976;30.316;2023-11-21T10:54:21;102086.19;;;-0.64;68.10
75855;BME280;64502;59.976;30.316;2023-11-21T10:56:53;102093.09;;;-0.65;68.71
75855;BME280;64502;59.976;30.316;2023-11-21T10:59:22;102086.16;;;-0.68;68.62
75855;BME280;64502;59.976;30.316;2023-11-21T11:01:50;102096.53;;;-0.64;67.70
75855;BME280;64502;59.976;30.316;2023-11-21T11:04:18;102093.09;;;-0.65;67.79
75855;BME280;64502;59.976;30.316;2023-11-21T11:06:45;102103.41;;;-0.70;67.68
75855;BME280;64502;59.976;30.316;2023-11-21T11:09:17;102099.91;;;-0.73;68.28
75855;BME280;64502;59.976;30.316;2023-11-21T11:11:43;102101.66;;;-0.72;68.62
75855;BME280;64502;59.976;30.316;2023-11-21T11:14:11;102099.91;;;-0.72;69.02
75855;BME280;64502;59.976;30.316;2023-11-21T11:16:39;102092.16;;;-0.70;68.52
75855;BME280;64502;59.976;30.316;2023-11-21T11:19:07;102094.81;;;-0.64;68.27
75855;BME280;64502;59.976;30.316;2023-11-21T11:24:28;102085.38;;;-0.56;67.65
75855;BME280;64502;59.976;30.316;2023-11-21T11:32:25;102080.97;;;-0.66;68.29
75855;BME280;64502;59.976;30.316;2023-11-21T11:35:36;102080.97;;;-0.68;67.85
75855;BME280;64502;59.976;30.316;2023-11-21T11:38:03;102088.69;;;-0.72;68.25
75855;BME280;64502;59.976;30.316;2023-11-21T11:40:40;102087.88;;;-0.68;67.82
75855;BME280;64502;59.976;30.316;2023-11-21T11:43:06;102088.75;;;-0.68;67.64
75855;BME280;64502;59.976;30.316;2023-11-21T11:45:34;102094.81;;;-0.65;68.10
75855;BME280;64502;59.976;30.316;2023-11-21T11:48:01;102091.34;;;-0.64;67.48
75855;BME280;64502;59.976;30.316;2023-11-21T11:50:29;102093.91;;;-0.66;67.39
75855;BME280;64502;59.976;30.316;2023-11-21T11:52:55;102099.97;;;-0.67;67.39
75855;BME280;64502;59.976;30.316;2023-11-21T11:55:36;102101.66;;;-0.72;67.73
75855;BME280;64502;59.976;30.316;2023-11-21T11:58:05;102097.28;;;-0.76;68.03
75855;BME280;64502;59.976;30.316;2023-11-21T12:00:35;102102.44;;;-0.78;68.18
75855;BME280;64502;59.976;30.316;2023-11-21T12:03:06;102099.81;;;-0.81;68.64
75855;BME280;64502;59.976;30.316;2023-11-21T12:05:34;102094.63;;;-0.82;68.77
75855;BME280;64502;59.976;30.316;2023-11-21T12:08:07;102098.97;;;-0.81;69.22
75855;BME280;64502;59.976;30.316;2023-11-21T12:10:36;102101.59;;;-0.78;69.74
75855;BME280;64502;59.976;30.316;2023-11-21T12:13:03;102093.81;;;-0.77;70.44
75855;BME280;64502;59.976;30.316;2023-11-21T12:15:32;102100.75;;;-0.74;70.05
75855;BME280;64502;59.976;30.316;2023-11-21T12:17:59;102103.34;;;-0.74;70.56
75855;BME280;64502;59.976;30.316;2023-11-21T12:20:25;102113.75;;;-0.73;70.71
75855;BME280;64502;59.976;30.316;2023-11-21T12:22:53;102115.44;;;-0.75;70.78
75855;BME280;64502;59.976;30.316;2023-11-21T12:25:26;102118.03;;;-0.76;70.77
75855;BME280;64502;59.976;30.316;2023-11-21T12:27:58;102118.81;;;-0.80;70.24
75855;BME280;64502;59.976;30.316;2023-11-21T12:30:26;102119.66;;;-0.83;70.58
75855;BME280;64502;59.976;30.316;2023-11-21T12:32:55;102124.78;;;-0.89;70.47
75855;BME280;64502;59.976;30.316;2023-11-21T12:35:23;102133.34;;;-0.95;71.08
75855;BME280;64502;59.976;30.316;2023-11-21T12:37:51;102139.34;;;-0.99;71.15
75855;BME280;64502;59.976;30.316;2023-11-21T12:40:17;102134.13;;;-1.03;71.35
75855;BME280;64502;59.976;30.316;2023-11-21T12:42:48;102133.22;;;-1.04;71.26
75855;BME280;64502;59.976;30.316;2023-11-21T12:47:50;102131.47;;;-1.08;70.76
75855;BME280;64502;59.976;30.316;2023-11-21T12:50:24;102132.28;;;-1.10;70.76
75855;BME280;64502;59.976;30.316;2023-11-21T12:52:57;102132.25;;;-1.12;70.47